Time;durP1;ratioP1;P1;durP2;ratioP2;P2;SDS_P1;SDS_P2;PMS_P1;PMS_P2;Temp;Humidity;BMP_temperature;BMP_pressure;BME280_temperature;BME280_humidity;BME280_pressure;Samples;Min_cycle;Max_cycle;Signal;HPM_P1;HPM_P2
2021/01/09 00:05:16;;;;;;;28.93;24.90;;;;;;;;;;14942434;29;20198;-76
2021/01/09 00:12:43;;;;;;;27.73;23.23;;;;;;;;;;14950660;29;20587;-78
2021/01/09 00:20:14;;;;;;;29.93;24.80;;;;;;;;;;14951256;29;20709;-76
2021/01/09 00:27:41;;;;;;;28.67;24.67;;;;;;;;;;14951637;29;20222;-76
2021/01/09 00:35:13;;;;;;;31.07;24.83;;;4.40;79.30;;;;;;14934774;29;20215;-76
2021/01/09 00:42:40;;;;;;;32.80;27.30;;;;;;;;;;14938699;29;20269;-76
2021/01/09 00:50:07;;;;;;;30.23;24.63;;;4.40;77.20;;;;;;14943939;29;20242;-76
2021/01/09 00:57:36;;;;;;;33.80;26.60;;;5.10;79.40;;;;;;14943057;29;20261;-74
2021/01/09 01:05:09;;;;;;;35.10;26.47;;;4.90;76.60;;;;;;14943561;29;20215;-78
2021/01/09 01:12:40;;;;;;;36.30;28.40;;;4.90;75.70;;;;;;14927467;29;20337;-77
2021/01/09 01:20:07;;;;;;;35.27;27.70;;;4.90;75.10;;;;;;14927841;29;20286;-77
2021/01/09 01:27:34;;;;;;;37.57;28.40;;;5.60;76.10;;;;;;14943426;29;20681;-76
2021/01/09 01:35:04;;;;;;;39.23;30.70;;;3.60;74.90;;;;;;14958081;29;20230;-77
2021/01/09 01:42:32;;;;;;;38.63;29.13;;;;;;;;;;14958409;29;20190;-76
2021/01/09 01:50:03;;;;;;;39.07;28.70;;;3.50;71.50;;;;;;14959090;29;20282;-77
2021/01/09 01:57:32;;;;;;;35.97;27.13;;;4.40;75.20;;;;;;14957621;29;20234;-77
2021/01/09 02:05:05;;;;;;;35.20;27.33;;;4.70;75.70;;;;;;14902674;29;20218;-78
2021/01/09 02:12:37;;;;;;;33.03;25.90;;;;;;;;;;14958077;29;20708;-78
2021/01/09 02:20:06;;;;;;;33.67;25.67;;;;;;;;;;14940312;29;20199;-79
2021/01/09 02:27:38;;;;;;;34.77;24.90;;;3.90;76.10;;;;;;14883798;29;20210;-77
2021/01/09 02:35:08;;;;;;;36.40;26.27;;;6.10;74.90;;;;;;14866975;29;20231;-78
2021/01/09 02:42:36;;;;;;;37.03;26.63;;;;;;;;;;14938339;29;20539;-75
2021/01/09 02:50:04;;;;;;;35.07;25.77;;;4.70;76.40;;;;;;14937970;29;20226;-77
2021/01/09 02:57:31;;;;;;;35.40;25.47;;;;;;;;;;14935529;29;20246;-78
2021/01/09 03:04:59;;;;;;;33.50;24.90;;;2.70;74.90;;;;;;14935929;29;20681;-77
2021/01/09 03:12:27;;;;;;;62.50;44.23;;;;;;;;;;14936934;29;20223;-73
2021/01/09 03:19:55;;;;;;;34.50;24.60;;;;;;;;;;14950783;29;20227;-76
2021/01/09 03:27:28;;;;;;;33.93;24.80;;;;;;;;;;14914990;29;20693;-78
2021/01/09 03:34:56;;;;;;;37.13;25.93;;;;;;;;;;14935142;29;20566;-77
2021/01/09 03:42:22;;;;;;;33.90;24.37;;;;;;;;;;14952961;29;20198;-77
2021/01/09 03:49:49;;;;;;;33.07;23.67;;;;;;;;;;14936348;29;20246;-78
2021/01/09 03:57:16;;;;;;;35.67;25.03;;;;;;;;;;14934492;29;20238;-77
2021/01/09 04:04:44;;;;;;;36.03;25.73;;;;;;;;;;14935451;29;21127;-78
2021/01/09 04:12:12;;;;;;;36.07;25.97;;;;;;;;;;14932505;29;20223;-76
2021/01/09 04:19:39;;;;;;;36.87;24.80;;;3.30;79.60;;;;;;14896269;29;20238;-76
2021/01/09 04:27:07;;;;;;;36.07;24.80;;;;;;;;;;14952396;29;20203;-77
2021/01/09 04:34:35;;;;;;;33.50;24.03;;;;;;;;;;14888477;29;20569;-77
2021/01/09 04:42:01;;;;;;;34.13;24.80;;;;;;;;;;14873014;29;20211;-77
2021/01/09 04:49:30;;;;;;;34.63;25.47;;;4.90;75.00;;;;;;14886187;29;20250;-77
2021/01/09 04:57:03;;;;;;;39.47;26.87;;;3.50;79.60;;;;;;14885874;29;20273;-77
2021/01/09 05:04:30;;;;;;;35.43;25.20;;;;;;;;;;14886895;29;20318;-77
2021/01/09 05:11:57;;;;;;;30.30;20.63;;;4.50;74.50;;;;;;14872302;29;20315;-78
2021/01/09 05:19:29;;;;;;;34.87;24.70;;;;;;;;;;14884800;29;20279;-77
2021/01/09 05:26:56;;;;;;;36.83;25.43;;;;;;;;;;14901048;29;20200;-77
2021/01/09 05:34:23;;;;;;;36.33;26.33;;;3.80;79.90;;;;;;14909173;29;20221;-77
2021/01/09 05:41:52;;;;;;;38.17;25.73;;;4.60;74.60;;;;;;14888452;29;20230;-77
2021/01/09 05:49:28;;;;;;;41.60;28.23;;;4.40;74.40;;;;;;14935363;29;20234;-77
2021/01/09 05:56:56;;;;;;;38.87;28.30;;;4.60;80.00;;;;;;14908064;29;20727;-77
2021/01/09 06:04:27;;;;;;;40.03;27.83;;;4.10;74.40;;;;;;14921033;29;20222;-76
2021/01/09 06:11:56;;;;;;;38.87;28.50;;;;;;;;;;14955884;29;20210;-76
2021/01/09 06:19:23;;;;;;;45.03;30.37;;;;;;;;;;14924799;29;20231;-76
2021/01/09 06:26:54;;;;;;;40.87;29.53;;;;;;;;;;14957335;29;20210;-77
2021/01/09 06:34:22;;;;;;;38.80;30.30;;;;;;;;;;14955355;29;20217;-77
2021/01/09 06:41:52;;;;;;;43.97;30.70;;;5.70;80.50;;;;;;14953653;29;20191;-78
2021/01/09 06:49:21;;;;;;;45.47;31.03;;;4.40;74.00;;;;;;14937992;29;20230;-78
2021/01/09 06:56:51;;;;;;;41.23;30.87;;;5.00;80.00;;;;;;14953943;29;20234;-78
2021/01/09 07:04:55;;;;;;;41.30;29.10;;;6.40;75.40;;;;;;14952603;29;20214;-78
2021/01/09 07:12:22;;;;;;;43.63;30.73;;;;;;;;;;14952419;29;20230;-76
2021/01/09 07:19:53;;;;;;;44.50;31.50;;;4.40;74.40;;;;;;14936761;29;20238;-77
2021/01/09 07:27:22;;;;;;;41.47;29.67;;;;;;;;;;14937043;29;20188;-78
2021/01/09 07:34:51;;;;;;;36.20;26.60;;;6.40;80.60;;;;;;14952725;29;20230;-77
2021/01/09 07:42:32;;;;;;;45.43;28.53;;;3.50;73.40;;;;;;14919123;29;20217;-77
2021/01/09 07:50:02;;;;;;;34.87;26.10;;;4.10;73.80;;;;;;14938409;29;20218;-78
2021/01/09 07:57:30;;;;;;;35.70;25.43;;;;;;;;;;14947690;29;20229;-77
2021/01/09 08:05:20;;;;;;;38.77;26.87;;;;;;;;;;14946329;29;20740;-78
2021/01/09 08:12:54;;;;;;;35.83;27.17;;;;;;;;;;14945113;29;20232;-78
2021/01/09 08:20:22;;;;;;;34.50;25.63;;;;;;;;;;14930809;29;20215;-78
2021/01/09 08:27:50;;;;;;;35.03;25.93;;;;;;;;;;14962924;29;20191;-77
2021/01/09 08:35:20;;;;;;;41.90;27.00;;;6.50;74.90;;;;;;14928276;29;20309;-78
2021/01/09 08:43:04;;;;;;;44.07;29.53;;;6.10;74.60;;;;;;14907942;29;20203;-78
2021/01/09 08:50:32;;;;;;;38.03;27.23;;;3.90;72.90;;;;;;14903817;29;20231;-77
2021/01/09 08:58:06;;;;;;;37.97;29.13;;;6.30;74.30;;;;;;14886857;29;20908;-76
2021/01/09 09:05:33;;;;;;;39.00;29.60;;;;;;;;;;14868538;29;20226;-77
2021/01/09 09:13:17;;;;;;;36.10;27.33;;;;;;;;;;14884032;29;20272;-76
2021/01/09 09:20:49;;;;;;;42.53;30.03;;;6.70;73.10;;;;;;14902111;29;20199;-77
2021/01/09 09:28:19;;;;;;;38.43;28.60;;;;;;;;;;14901110;29;20203;-76
2021/01/09 09:35:48;;;;;;;43.40;32.20;;;;;;;;;;14883976;29;20274;-76
2021/01/09 09:43:17;;;;;;;46.77;32.90;;;6.30;72.70;;;;;;14899782;29;20223;-77
2021/01/09 09:50:44;;;;;;;47.47;33.57;;;;;;;;;;14900607;29;20257;-77
2021/01/09 09:58:15;;;;;;;46.57;33.10;;;;;;;;;;14880895;29;20243;-78
2021/01/09 10:05:43;;;;;;;47.73;32.77;;;7.10;76.10;;;;;;14897328;29;20204;-77
2021/01/09 10:13:12;;;;;;;45.50;32.40;;;5.30;74.20;;;;;;14898427;29;20234;-76
2021/01/09 10:20:40;;;;;;;42.73;31.87;;;;;;;;;;14899825;29;20607;-77
2021/01/09 10:28:10;;;;;;;41.17;31.77;;;6.50;74.40;;;;;;14881720;29;20707;-76
2021/01/09 10:35:38;;;;;;;37.37;27.67;;;6.30;73.40;;;;;;14880247;29;20662;-75
2021/01/09 10:43:06;;;;;;;42.13;29.57;;;;;;;;;;14880003;29;20207;-76
2021/01/09 10:50:34;;;;;;;30.07;24.50;;;;;;;;;;14850737;29;20243;-76
2021/01/09 10:58:01;;;;;;;44.40;33.43;;;8.30;73.20;;;;;;14878999;29;20602;-76
2021/01/09 11:05:30;;;;;;;45.47;34.80;;;6.50;70.60;;;;;;14894148;29;20206;-76
2021/01/09 11:12:59;;;;;;;47.13;34.47;;;;;;;;;;14879380;29;20219;-75
2021/01/09 11:20:25;;;;;;;43.80;32.30;;;6.10;71.20;;;;;;14895558;29;20606;-74
2021/01/09 11:27:52;;;;;;;48.13;33.87;;;;;;;;;;14877087;29;20555;-79
2021/01/09 11:35:20;;;;;;;12.47;10.80;;;;;;;;;;14896617;29;20231;-78
2021/01/09 11:42:47;;;;;;;16.70;11.40;;;;;;;;;;14865529;29;20659;-78
2021/01/09 11:50:17;;;;;;;21.83;14.90;;;;;;;;;;14878122;29;20202;-75
2021/01/09 11:57:49;;;;;;;16.00;13.07;;;;;;;;;;14902628;29;20241;-77
2021/01/09 12:05:15;;;;;;;21.73;18.40;;;9.90;68.20;;;;;;14908479;29;20203;-79
2021/01/09 12:12:43;;;;;;;27.87;20.03;;;;;;;;;;14927637;29;20414;-78
2021/01/09 12:20:12;;;;;;;34.57;26.23;;;;;;;;;;14920764;29;20210;-79
2021/01/09 12:27:39;;;;;;;30.90;23.23;;;7.10;71.80;;;;;;14950830;29;20605;-78
2021/01/09 12:35:07;;;;;;;28.07;20.67;;;;;;;;;;14953841;29;20694;-79
2021/01/09 12:42:34;;;;;;;22.13;17.63;;;;;;;;;;14963301;29;20239;-77
2021/01/09 12:50:01;;;;;;;21.87;17.13;;;;;;;;;;14957235;29;20226;-77
2021/01/09 12:57:29;;;;;;;19.13;14.03;;;;;;;;;;14943230;29;20234;-78
2021/01/09 13:04:57;;;;;;;30.73;23.20;;;;;;;;;;14926138;29;20591;-79
2021/01/09 13:12:25;;;;;;;42.97;29.50;;;;;;;;;;14927511;29;20245;-77
2021/01/09 13:19:53;;;;;;;34.27;25.07;;;;;;;;;;14957008;29;20278;-78
2021/01/09 13:27:21;;;;;;;26.40;19.50;;;;;;;;;;14941579;29;20206;-78
2021/01/09 13:34:49;;;;;;;37.43;22.57;;;7.80;70.40;;;;;;14941277;29;20238;-77
2021/01/09 13:42:15;;;;;;;14.77;13.10;;;;;;;;;;14957203;29;20285;-78
2021/01/09 13:49:45;;;;;;;11.37;9.23;;;8.10;69.30;;;;;;14915228;29;20231;-77
2021/01/09 13:57:29;;;;;;;19.77;14.43;;;;;;;;;;14868274;29;20254;-77
2021/01/09 14:04:57;;;;;;;19.10;16.27;;;;;;;;;;14875741;29;20219;-76
2021/01/09 14:12:26;;;;;;;19.27;16.87;;;6.70;67.20;;;;;;14868223;29;20283;-80
2021/01/09 14:19:53;;;;;;;24.93;21.30;;;;;;;;;;14883342;29;20287;-81
2021/01/09 14:27:21;;;;;;;27.27;21.90;;;;;;;;;;14918533;29;20203;-79
2021/01/09 14:34:48;;;;;;;25.60;21.20;;;7.30;68.50;;;;;;14958715;29;20629;-79
2021/01/09 14:42:17;;;;;;;26.40;21.73;;;;;;;;;;14937340;29;20198;-77
2021/01/09 14:49:45;;;;;;;26.93;22.37;;;;;;;;;;14938055;29;20242;-80
2021/01/09 14:57:12;;;;;;;23.53;20.00;;;7.50;68.50;;;;;;14938205;29;20608;-82
2021/01/09 15:04:53;;;;;;;24.37;19.10;;;;;;;;;;14954639;29;20673;-80
2021/01/09 15:12:22;;;;;;;22.03;16.87;;;;;;;;;;14953011;29;20568;-78
2021/01/09 15:19:49;;;;;;;25.53;18.57;;;;;;;;;;14937364;29;20254;-79
2021/01/09 15:27:17;;;;;;;24.33;19.20;;;;;;;;;;14938490;29;20570;-79
2021/01/09 15:34:44;;;;;;;22.93;18.53;;;7.40;68.90;;;;;;14953475;29;20230;-79
2021/01/09 15:42:12;;;;;;;23.73;19.90;;;;;;;;;;14951743;29;20281;-78
2021/01/09 15:49:40;;;;;;;29.77;21.10;;;;;;;;;;14936839;29;20219;-76
2021/01/09 15:57:07;;;;;;;26.70;21.43;;;;;;;;;;14952048;29;20242;-77
2021/01/09 16:04:34;;;;;;;24.97;19.47;;;;;;;;;;14933857;29;20733;-79
2021/01/09 16:12:05;;;;;;;20.47;17.90;;;;;;;;;;14922133;29;20246;-77
2021/01/09 16:19:34;;;;;;;20.53;18.23;;;;;;;;;;14932660;29;20226;-92
2021/01/09 16:27:04;;;;;;;19.53;17.43;;;;;;;;;;14895228;29;20196;-77
2021/01/09 16:34:33;;;;;;;20.93;18.47;;;;;;;;;;14901924;29;20213;-78
2021/01/09 16:42:04;;;;;;;23.73;19.67;;;;;;;;;;14887284;29;20286;-78
2021/01/09 16:49:33;;;;;;;22.67;18.40;;;;;;;;;;14887059;29;20239;-77
2021/01/09 16:57:01;;;;;;;23.40;19.30;;;;;;;;;;14902491;29;20240;-78
2021/01/09 17:04:29;;;;;;;27.57;21.00;;;5.70;71.80;;;;;;14902081;29;20200;-77
2021/01/09 17:11:56;;;;;;;23.10;20.53;;;;;;;;;;14887700;29;20235;-84
2021/01/09 17:19:23;;;;;;;24.50;21.20;;;;;;;;;;14890987;29;20583;-82
2021/01/09 17:26:56;;;;;;;28.47;21.77;;;;;;;;;;14904685;29;20188;-85
2021/01/09 17:34:22;;;;;;;26.93;22.60;;;;;;;;;;14890109;29;20580;-86
2021/01/09 17:41:54;;;;;;;27.47;23.63;;;;;;;;;;14955719;29;20203;-87
2021/01/09 17:49:21;;;;;;;26.67;22.30;;;4.60;71.50;;;;;;14891119;29;20662;-74
2021/01/09 17:56:49;;;;;;;28.03;24.37;;;;;;;;;;14886370;29;20728;-77
2021/01/09 18:04:38;;;;;;;28.73;22.47;;;;;;;;;;14883298;29;20211;-77
2021/01/09 18:12:05;;;;;;;26.10;22.40;;;;;;;;;;14865052;29;20260;-76
2021/01/09 18:19:39;;;;;;;26.73;21.83;;;5.90;71.70;;;;;;14871514;29;20256;-77
2021/01/09 18:27:07;;;;;;;26.70;23.23;;;;;;;;;;14880503;29;20711;-77
2021/01/09 18:34:42;;;;;;;30.07;25.13;;;;;;;;;;14881842;29;20215;-78
2021/01/09 18:42:12;;;;;;;26.23;23.10;;;6.20;68.30;;;;;;14901499;29;20267;-76
2021/01/09 18:49:40;;;;;;;32.90;26.50;;;;;;;;;;14879438;29;20223;-78
2021/01/09 18:57:13;;;;;;;34.83;28.13;;;7.10;68.90;;;;;;14882147;29;20976;-76
2021/01/09 19:04:43;;;;;;;35.13;28.63;;;;;;;;;;14868026;29;20218;-84
2021/01/09 19:12:32;;;;;;;37.37;30.07;;;;;;;;;;14899015;29;20219;-83
2021/01/09 19:20:23;;;;;;;35.07;28.97;;;4.50;71.20;;;;;;14880413;29;20255;-80
2021/01/09 19:27:53;;;;;;;36.53;29.03;;;;;;;;;;14915644;29;20195;-83
2021/01/09 19:35:28;;;;;;;37.27;29.07;;;;;;;;;;14834345;29;20216;-82
2021/01/09 19:43:03;;;;;;;34.37;28.00;;;5.10;67.60;;;;;;14877118;29;20699;-76
2021/01/09 19:50:45;;;;;;;34.97;27.20;;;4.20;70.20;;;;;;14846916;29;20215;-75
2021/01/09 19:58:19;;;;;;;33.00;27.93;;;;;;;;;;14874307;29;20239;-76
2021/01/09 20:05:46;;;;;;;35.17;29.73;;;;;;;;;;14876297;29;20565;-76
2021/01/09 20:13:13;;;;;;;35.40;29.07;;;5.80;74.20;;;;;;14860302;29;20239;-76
2021/01/09 20:20:45;;;;;;;30.87;25.83;;;4.90;74.20;;;;;;14874629;29;20195;-75
2021/01/09 20:28:14;;;;;;;28.47;23.53;;;;;;;;;;14844895;29;20702;-76
2021/01/09 20:35:47;;;;;;;36.00;29.67;;;;;;;;;;14875041;29;20267;-76
2021/01/09 20:43:16;;;;;;;36.50;29.83;;;;;;;;;;14874910;29;20219;-76
2021/01/09 20:50:42;;;;;;;35.97;29.47;;;5.90;75.50;;;;;;14872364;29;20211;-77
2021/01/09 20:58:10;;;;;;;42.70;33.27;;;;;;;;;;14875811;29;20263;-76
2021/01/09 21:05:39;;;;;;;38.13;30.93;;;6.40;76.10;;;;;;14884234;29;20263;-77
2021/01/09 21:13:10;;;;;;;38.43;30.73;;;4.90;75.90;;;;;;14900513;29;20305;-77
2021/01/09 21:20:37;;;;;;;38.40;30.13;;;;;;;;;;14892840;29;20651;-78
2021/01/09 21:28:04;;;;;;;40.40;31.57;;;;;;;;;;14827979;29;20679;-78
2021/01/09 21:35:33;;;;;;;42.57;31.80;;;;;;;;;;14847402;29;20219;-77
2021/01/09 21:43:01;;;;;;;41.57;31.67;;;4.60;74.00;;;;;;14896754;29;20218;-77
2021/01/09 21:50:28;;;;;;;37.27;30.97;;;;;;;;;;14884454;29;20196;-82
2021/01/09 21:57:59;;;;;;;38.07;29.63;;;;;;;;;;14885611;29;20809;-81
2021/01/09 22:05:25;;;;;;;41.67;32.27;;;;;;;;;;14884557;29;20196;-80
2021/01/09 22:12:53;;;;;;;42.33;33.27;;;5.20;73.70;;;;;;14882674;29;20639;-80
2021/01/09 22:20:25;;;;;;;44.70;34.63;;;;;;;;;;14899475;29;20283;-81
2021/01/09 22:27:53;;;;;;;47.70;35.93;;;;;;;;;;14899703;29;20219;-79
2021/01/09 22:35:20;;;;;;;49.70;38.30;;;;;;;;;;14897975;29;20223;-80
2021/01/09 22:42:48;;;;;;;50.43;37.80;;;;;;;;;;14898008;29;20215;-78
2021/01/09 22:50:16;;;;;;;51.00;40.10;;;3.90;73.60;;;;;;14897395;29;20220;-80
2021/01/09 22:57:43;;;;;;;54.83;41.67;;;;;;;;;;14863002;29;20246;-76
2021/01/09 23:05:12;;;;;;;56.23;43.00;;;4.20;72.20;;;;;;14894043;29;20230;-76
2021/01/09 23:12:39;;;;;;;55.00;42.77;;;;;;;;;;14894229;29;20694;-75
2021/01/09 23:20:10;;;;;;;57.67;42.50;;;;;;;;;;14893969;29;20211;-77
2021/01/09 23:27:38;;;;;;;56.27;43.57;;;;;;;;;;14893739;29;20665;-77
2021/01/09 23:35:08;;;;;;;58.53;42.77;;;;;;;;;;14892768;29;20215;-76
2021/01/09 23:42:41;;;;;;;62.40;44.87;;;2.40;72.80;;;;;;14877283;29;20223;-76
2021/01/09 23:50:09;;;;;;;62.07;45.00;;;5.10;78.10;;;;;;14879045;29;20199;-78
2021/01/09 23:57:35;;;;;;;64.03;47.30;;;;;;;;;;14892690;29;20243;-77
